Time;durP1;ratioP1;P1;durP2;ratioP2;P2;SDS_P1;SDS_P2;PMS_P1;PMS_P2;Temp;Humidity;BMP_temperature;BMP_pressure;BME280_temperature;BME280_humidity;BME280_pressure;Samples;Min_cycle;Max_cycle;Signal;HPM_P1;HPM_P2
2023/08/15 00:01:00;;;;;;;;;6.20;6.20;;;;;22.10;66.92;99637.78;4978301;28;8828;-59
2023/08/15 00:03:28;;;;;;;;;6.20;6.20;;;;;22.08;67.06;99634.44;4978515;28;8840;-58
2023/08/15 00:05:56;;;;;;;;;8.60;8.00;;;;;22.03;66.81;99626.88;4978201;28;8844;-58
2023/08/15 00:08:23;;;;;;;;;8.40;7.20;;;;;21.98;66.74;99628.53;4978602;28;8867;-58
2023/08/15 00:10:51;;;;;;;;;5.80;5.00;;;;;21.92;67.44;99630.19;4978792;28;8828;-58
2023/08/15 00:13:18;;;;;;;;;7.00;6.20;;;;;21.88;67.05;99628.91;4978893;28;8828;-57
2023/08/15 00:15:46;;;;;;;;;6.20;6.20;;;;;21.83;67.68;99625.13;4978410;28;8836;-58
2023/08/15 00:18:14;;;;;;;;;5.60;5.60;;;;;21.80;67.70;99630.97;4978125;28;8825;-58
2023/08/15 00:20:41;;;;;;;;;6.40;6.40;;;;;21.80;67.69;99628.25;4978641;28;8845;-58
2023/08/15 00:23:09;;;;;;;;;7.80;7.80;;;;;21.80;67.16;99620.13;4978842;28;8842;-58
2023/08/15 00:25:37;;;;;;;;;10.20;10.20;;;;;21.81;67.73;99616.34;4977765;28;8842;-60
2023/08/15 00:28:04;;;;;;;;;11.60;11.00;;;;;21.80;67.18;99612.78;4978183;28;8943;-57
2023/08/15 00:30:33;;;;;;;;;7.80;7.20;;;;;21.81;67.78;99605.50;4977930;28;8849;-59
2023/08/15 00:33:01;;;;;;;;;9.80;9.00;;;;;21.81;67.81;99602.81;4977792;28;8813;-60
2023/08/15 00:35:29;;;;;;;;;8.80;8.40;;;;;21.79;67.31;99589.44;4977692;28;8843;-60
2023/08/15 00:37:57;;;;;;;;;8.20;8.20;;;;;21.80;67.48;99593.00;4977922;28;8848;-58
2023/08/15 00:40:25;;;;;;;;;9.40;8.20;;;;;21.79;67.86;99591.34;4977773;28;8847;-59
2023/08/15 00:42:52;;;;;;;;;11.00;11.00;;;;;21.78;67.52;99595.09;4978246;28;8824;-58
2023/08/15 00:45:20;;;;;;;;;15.20;12.80;;;;;21.76;67.35;99586.28;4977767;28;8821;-58
2023/08/15 00:47:47;;;;;;;;;9.00;9.00;;;;;21.74;67.74;99582.94;4977841;28;8828;-58
2023/08/15 00:50:16;;;;;;;;;9.80;9.00;;;;;21.71;67.64;99594.22;4978124;28;8848;-60
2023/08/15 00:52:43;;;;;;;;;10.80;9.80;;;;;21.67;67.88;99588.34;4978136;28;8825;-60
2023/08/15 00:55:11;;;;;;;;;10.20;8.60;;;;;21.63;67.76;99580.78;4977294;28;8820;-58
2023/08/15 00:57:39;;;;;;;;;8.00;8.00;;;;;21.62;68.32;99581.81;4977779;28;9503;-58
2023/08/15 01:00:06;;;;;;;;;8.20;8.20;;;;;21.66;68.17;99591.25;4977714;28;8870;-60
2023/08/15 01:02:34;;;;;;;;;13.80;11.60;;;;;21.70;67.78;99593.38;4976798;28;8828;-59
2023/08/15 01:05:02;;;;;;;;;12.20;11.60;;;;;21.73;67.95;99592.97;4977896;28;8860;-57
2023/08/15 01:07:30;;;;;;;;;10.40;9.40;;;;;21.75;68.02;99590.03;4977522;28;8813;-58
2023/08/15 01:09:57;;;;;;;;;11.40;11.40;;;;;21.77;68.28;99587.97;4977323;28;8836;-59
2023/08/15 01:12:25;;;;;;;;;9.80;8.60;;;;;21.79;67.96;99585.91;4976032;28;8848;-58
2023/08/15 01:14:52;;;;;;;;;8.60;7.80;;;;;21.79;67.62;99583.19;4977232;28;8867;-60
2023/08/15 01:17:20;;;;;;;;;10.00;8.00;;;;;21.78;67.93;99584.25;4977733;28;9515;-59
2023/08/15 01:19:48;;;;;;;;;9.00;8.20;;;;;21.77;68.01;99577.97;4977493;28;8964;-58
2023/08/15 01:22:16;;;;;;;;;9.80;9.00;;;;;21.78;67.71;99578.81;4977517;28;8955;-60
2023/08/15 01:24:43;;;;;;;;;6.40;6.20;;;;;21.79;68.25;99575.06;4977655;28;9514;-58
2023/08/15 01:27:11;;;;;;;;;8.00;6.20;;;;;21.80;68.32;99565.88;4977025;28;8860;-58
2023/08/15 01:29:39;;;;;;;;;11.60;9.80;;;;;21.78;67.87;99560.66;4976925;28;8832;-58
2023/08/15 01:32:06;;;;;;;;;8.80;8.40;;;;;21.77;67.97;99569.84;4977226;28;8844;-59
2023/08/15 01:34:34;;;;;;;;;9.00;9.00;;;;;21.76;68.07;99570.03;4977262;28;8859;-57
2023/08/15 01:37:01;;;;;;;;;8.20;8.00;;;;;21.72;68.46;99571.47;4976743;28;8859;-58
2023/08/15 01:39:30;;;;;;;;;8.00;8.00;;;;;21.66;68.50;99569.56;4976973;28;8884;-58
2023/08/15 01:41:58;;;;;;;;;6.00;6.00;;;;;21.59;68.59;99568.66;4977123;28;9837;-60
2023/08/15 01:44:25;;;;;;;;;7.40;6.80;;;;;21.50;68.68;99568.00;4977049;28;8860;-59
2023/08/15 01:46:53;;;;;;;;;10.20;9.00;;;;;21.42;69.31;99560.03;4976251;28;8833;-58
2023/08/15 01:49:21;;;;;;;;;8.60;8.40;;;;;21.35;69.30;99556.44;4976894;28;8840;-59
2023/08/15 01:51:49;;;;;;;;;8.00;8.00;;;;;21.29;69.25;99556.41;4976559;28;8805;-59
2023/08/15 01:54:16;;;;;;;;;8.60;7.80;;;;;21.22;69.64;99558.25;4976707;28;8825;-59
2023/08/15 01:56:44;;;;;;;;;7.20;7.20;;;;;21.14;69.43;99556.53;4976366;28;8825;-58
2023/08/15 01:59:11;;;;;;;;;7.40;7.40;;;;;21.06;70.01;99574.81;4976400;28;9649;-58
2023/08/15 02:01:39;;;;;;;;;8.00;8.00;;;;;20.99;69.70;99571.22;4976377;28;8817;-60
2023/08/15 02:04:07;;;;;;;;;7.80;7.80;;;;;20.92;70.32;99564.91;4976938;28;8863;-60
2023/08/15 02:06:35;;;;;;;;;4.80;4.00;;;;;20.83;70.50;99580.44;4976950;28;8856;-59
2023/08/15 02:09:02;;;;;;;;;8.60;8.00;;;;;20.77;70.11;99577.66;4976629;28;8840;-60
2023/08/15 02:11:30;;;;;;;;;5.80;5.80;;;;;20.71;70.87;99581.16;4976300;28;8816;-59
2023/08/15 02:13:57;;;;;;;;;11.20;10.40;;;;;20.67;70.49;99569.06;4976255;28;9549;-60
2023/08/15 02:16:25;;;;;;;;;8.00;8.00;;;;;20.64;71.14;99574.03;4976932;28;8853;-58
2023/08/15 02:18:53;;;;;;;;;7.60;7.60;;;;;20.61;70.41;99575.25;4976154;28;8852;-59
2023/08/15 02:21:20;;;;;;;;;9.00;8.00;;;;;20.58;70.71;99572.94;4976401;28;8851;-60
2023/08/15 02:23:48;;;;;;;;;9.80;8.40;;;;;20.58;70.91;99572.09;4976732;28;9526;-60
2023/08/15 02:26:16;;;;;;;;;6.60;5.80;;;;;20.56;70.99;99566.84;4976681;28;8867;-58
2023/08/15 02:28:43;;;;;;;;;7.60;7.00;;;;;20.56;70.58;99566.03;4975542;28;8844;-60
2023/08/15 02:31:11;;;;;;;;;6.60;6.60;;;;;20.55;70.79;99567.91;4976068;28;9504;-60
2023/08/15 02:33:38;;;;;;;;;8.40;8.00;;;;;20.55;70.81;99564.38;4975745;28;8930;-60
2023/08/15 02:36:06;;;;;;;;;7.80;7.80;;;;;20.55;70.70;99561.66;4975673;28;8859;-60
2023/08/15 02:38:34;;;;;;;;;7.80;7.80;;;;;20.54;70.51;99565.41;4975821;28;8856;-58
2023/08/15 02:41:01;;;;;;;;;6.60;5.00;;;;;20.54;70.47;99568.94;4975810;28;8828;-58
2023/08/15 02:43:29;;;;;;;;;7.80;7.40;;;;;20.52;70.61;99565.59;4976054;28;8839;-60
2023/08/15 02:45:57;;;;;;;;;7.20;7.20;;;;;20.53;70.78;99575.38;4975587;28;8959;-59
2023/08/15 02:48:25;;;;;;;;;7.60;7.60;;;;;20.55;70.42;99567.91;4975552;28;8848;-60
2023/08/15 02:50:52;;;;;;;;;9.80;8.00;;;;;20.59;70.84;99563.78;4975477;28;8824;-60
2023/08/15 02:53:20;;;;;;;;;10.20;8.00;;;;;20.62;70.78;99557.97;4975501;28;8851;-61
2023/08/15 02:55:48;;;;;;;;;10.40;9.00;;;;;20.63;70.69;99553.41;4975434;28;8835;-60
2023/08/15 02:58:15;;;;;;;;;7.00;7.00;;;;;20.64;70.58;99560.50;4975802;28;9576;-60
2023/08/15 03:00:43;;;;;;;;;2.40;2.40;;;;;20.64;70.43;99555.06;4975414;28;8868;-59
2023/08/15 03:03:10;;;;;;;;;7.20;7.20;;;;;20.65;70.65;99565.72;4975530;28;8883;-60
2023/08/15 03:05:38;;;;;;;;;8.00;8.00;;;;;20.66;70.75;99553.84;4975259;28;8840;-60
2023/08/15 03:08:06;;;;;;;;;8.20;7.40;;;;;20.68;70.35;99549.06;4975692;28;9515;-60
2023/08/15 03:10:36;;;;;;;;;7.40;7.40;;;;;20.71;70.38;99550.56;4975800;28;8928;-60
2023/08/15 03:13:04;;;;;;;;;8.00;8.00;;;;;20.74;70.53;99553.72;4975845;28;8856;-59
2023/08/15 03:15:31;;;;;;;;;7.80;7.80;;;;;20.76;70.20;99554.34;4976414;28;9511;-60
2023/08/15 03:17:59;;;;;;;;;9.20;7.40;;;;;20.78;69.97;99542.28;4975890;28;8839;-60
2023/08/15 03:20:26;;;;;;;;;9.00;8.20;;;;;20.82;70.22;99540.03;4975996;28;8832;-60
2023/08/15 03:22:54;;;;;;;;;9.80;7.40;;;;;20.85;70.11;99550.44;4975866;28;8861;-59
2023/08/15 03:25:22;;;;;;;;;7.80;7.40;;;;;20.88;70.16;99543.84;4975647;28;9198;-60
2023/08/15 03:27:50;;;;;;;;;8.00;8.00;;;;;20.91;70.14;99536.16;4978893;28;8821;-59
2023/08/15 03:30:17;;;;;;;;;7.60;7.60;;;;;20.93;69.90;99534.09;4979079;28;8828;-59
2023/08/15 03:32:45;;;;;;;;;11.80;8.60;;;;;20.95;70.21;99529.34;4978644;28;8847;-60
2023/08/15 03:35:12;;;;;;;;;7.00;6.20;;;;;20.93;70.09;99525.97;4978907;28;8859;-59
2023/08/15 03:37:40;;;;;;;;;11.00;8.60;;;;;20.91;70.23;99544.28;4978915;28;8880;-58
2023/08/15 03:40:08;;;;;;;;;10.60;10.00;;;;;20.88;70.11;99555.53;4978604;28;8855;-60
2023/08/15 03:42:36;;;;;;;;;11.00;10.00;;;;;20.85;70.10;99558.56;4979159;28;8832;-58
2023/08/15 03:45:03;;;;;;;;;13.20;11.40;;;;;20.81;70.30;99558.13;4977297;28;8848;-60
2023/08/15 03:47:31;;;;;;;;;10.40;10.20;;;;;20.80;70.67;99572.69;4978325;28;8986;-61
2023/08/15 03:49:59;;;;;;;;;11.40;10.00;;;;;20.79;70.34;99586.41;4977949;28;8821;-60
2023/08/15 03:52:27;;;;;;;;;11.00;10.00;;;;;20.76;70.79;99608.47;4978441;28;8828;-59
2023/08/15 03:54:55;;;;;;;;;14.00;12.20;;;;;20.71;70.37;99616.34;4977806;28;8854;-59
2023/08/15 03:57:22;;;;;;;;;11.00;10.60;;;;;20.62;70.91;99644.56;4977813;28;8824;-59
2023/08/15 03:59:50;;;;;;;;;9.00;8.20;;;;;20.54;71.31;99623.06;4977221;28;8867;-59
2023/08/15 04:02:17;;;;;;;;;9.80;8.00;;;;;20.51;71.50;99636.97;4978160;28;8832;-58
2023/08/15 04:04:45;;;;;;;;;11.00;10.00;;;;;20.50;71.39;99667.78;4978084;28;8841;-58
2023/08/15 04:07:13;;;;;;;;;12.80;11.20;;;;;20.50;71.71;99673.19;4978335;28;9514;-58
2023/08/15 04:09:41;;;;;;;;;10.00;10.00;;;;;20.53;71.70;99682.75;4978609;28;8903;-59
2023/08/15 04:12:09;;;;;;;;;11.00;10.80;;;;;20.51;71.53;99691.09;4978178;28;8852;-57
2023/08/15 04:14:36;;;;;;;;;12.20;9.20;;;;;20.50;71.91;99710.22;4977746;28;8836;-58
2023/08/15 04:17:04;;;;;;;;;11.40;9.80;;;;;20.48;72.69;99723.94;4977933;28;8876;-58
2023/08/15 04:19:32;;;;;;;;;7.00;6.20;;;;;20.47;72.73;99732.25;4977203;28;9531;-58
2023/08/15 04:22:00;;;;;;;;;7.80;7.60;;;;;20.48;72.60;99742.03;4976590;28;8837;-56
2023/08/15 04:24:28;;;;;;;;;8.00;7.40;;;;;20.48;72.80;99742.88;4976874;28;8832;-57
2023/08/15 04:26:56;;;;;;;;;6.20;6.20;;;;;20.49;72.87;99727.50;4976836;28;8837;-57
2023/08/15 04:29:23;;;;;;;;;5.00;4.80;;;;;20.51;73.08;99714.59;4976477;28;8824;-57
2023/08/15 04:31:51;;;;;;;;;5.80;5.80;;;;;20.51;73.35;99699.22;4976878;28;8832;-58
2023/08/15 04:34:19;;;;;;;;;2.00;2.00;;;;;20.48;73.88;99687.94;4977225;28;8833;-57
2023/08/15 04:36:47;;;;;;;;;0.00;0.00;;;;;20.46;73.78;99682.69;4977706;28;8852;-57
2023/08/15 04:39:15;;;;;;;;;4.00;3.60;;;;;20.41;74.44;99668.91;4978214;28;8871;-57
2023/08/15 04:41:42;;;;;;;;;3.60;2.00;;;;;20.36;74.84;99643.47;4977547;28;8833;-58
2023/08/15 04:44:10;;;;;;;;;2.00;2.00;;;;;20.27;75.04;99604.88;4977226;28;8844;-59
2023/08/15 04:46:38;;;;;;;;;1.80;1.20;;;;;20.21;75.41;99592.13;4976709;28;8840;-60
2023/08/15 04:49:05;;;;;;;;;4.00;4.00;;;;;20.13;75.32;99578.72;4977587;28;8867;-57
2023/08/15 04:51:33;;;;;;;;;2.00;2.00;;;;;20.10;75.37;99568.28;4976399;28;8829;-57
2023/08/15 04:54:00;;;;;;;;;2.00;1.40;;;;;20.06;75.49;99588.63;4975990;28;8821;-57
2023/08/15 04:56:28;;;;;;;;;2.00;1.80;;;;;20.03;75.49;99616.00;4976588;28;9564;-58
2023/08/15 04:58:56;;;;;;;;;2.80;2.00;;;;;20.00;75.49;99643.44;4975990;28;8853;-59
2023/08/15 05:01:24;;;;;;;;;1.80;1.80;;;;;19.99;75.39;99660.69;4975731;28;8875;-57
2023/08/15 05:03:52;;;;;;;;;1.60;1.00;;;;;19.97;75.78;99684.38;4976282;28;8829;-57
2023/08/15 05:06:19;;;;;;;;;3.60;2.00;;;;;19.95;75.37;99705.31;4975840;28;8844;-59
2023/08/15 05:08:48;;;;;;;;;1.40;1.00;;;;;19.94;75.90;99727.97;4976253;28;8875;-59
2023/08/15 05:11:15;;;;;;;;;2.40;2.00;;;;;19.95;75.55;99718.84;4976210;28;8950;-58
2023/08/15 05:13:43;;;;;;;;;2.00;1.00;;;;;19.95;75.87;99732.34;4975418;28;8955;-57
2023/08/15 05:16:11;;;;;;;;;2.80;2.00;;;;;19.97;75.90;99714.09;4975281;28;9128;-57
2023/08/15 05:18:39;;;;;;;;;2.80;2.80;;;;;19.99;75.71;99716.59;4975825;28;8824;-58
2023/08/15 05:21:07;;;;;;;;;2.40;2.00;;;;;19.98;75.68;99702.25;4974864;28;8832;-59
2023/08/15 05:23:35;;;;;;;;;2.00;2.00;;;;;19.99;75.60;99695.81;4974451;28;8855;-57
2023/08/15 05:26:02;;;;;;;;;2.00;2.00;;;;;20.01;75.39;99690.25;4974990;28;9495;-57
2023/08/15 05:28:30;;;;;;;;;2.40;2.00;;;;;20.00;75.47;99711.00;4974175;28;8855;-59
2023/08/15 05:30:58;;;;;;;;;1.20;1.20;;;;;20.02;75.52;99714.34;4974134;28;8864;-59
2023/08/15 05:33:25;;;;;;;;;2.80;2.40;;;;;20.04;75.08;99700.66;4975061;28;8845;-57
2023/08/15 05:35:53;;;;;;;;;1.40;1.40;;;;;20.06;75.30;99696.78;4974345;28;8851;-58
2023/08/15 05:38:21;;;;;;;;;2.00;2.00;;;;;20.10;75.60;99686.44;4973870;28;8849;-58
2023/08/15 05:40:48;;;;;;;;;2.00;1.00;;;;;20.13;75.24;99686.03;4973235;28;8849;-58
2023/08/15 05:43:16;;;;;;;;;1.00;1.00;;;;;20.18;74.80;99680.91;4973985;28;8836;-58
2023/08/15 05:45:45;;;;;;;;;4.20;4.00;;;;;20.21;74.63;99673.25;4974139;28;8931;-58
2023/08/15 05:48:13;;;;;;;;;2.80;2.40;;;;;20.26;75.02;99670.81;4972750;28;8844;-58
2023/08/15 05:50:40;;;;;;;;;1.00;1.00;;;;;20.29;74.82;99673.16;4972376;28;8863;-57
2023/08/15 05:53:08;;;;;;;;;3.00;2.40;;;;;20.32;74.38;99675.47;4973704;28;8844;-56
2023/08/15 05:55:36;;;;;;;;;4.20;4.00;;;;;20.32;74.75;99675.47;4973564;28;8971;-58
2023/08/15 05:58:04;;;;;;;;;4.20;2.00;;;;;20.31;74.72;99662.97;4973774;28;8836;-58
2023/08/15 06:00:31;;;;;;;;;2.00;2.00;;;;;20.32;74.55;99680.88;4972990;28;8836;-58
2023/08/15 06:03:00;;;;;;;;;2.00;2.00;;;;;20.33;74.60;99701.47;4973289;28;8836;-59
2023/08/15 06:05:27;;;;;;;;;1.20;0.80;;;;;20.34;74.73;99703.16;4972446;28;8841;-57
2023/08/15 06:07:55;;;;;;;;;2.80;2.00;;;;;20.36;74.80;99695.72;4972735;28;8841;-57
2023/08/15 06:10:23;;;;;;;;;1.00;1.00;;;;;20.39;74.24;99687.19;4973169;28;8828;-57
2023/08/15 06:12:50;;;;;;;;;2.00;1.60;;;;;20.46;74.59;99673.75;4972944;28;9506;-58
2023/08/15 06:15:18;;;;;;;;;1.80;1.00;;;;;20.52;74.66;99684.66;4972505;28;8841;-59
2023/08/15 06:17:46;;;;;;;;;2.60;1.00;;;;;20.62;74.02;99692.47;4973698;28;8824;-55
2023/08/15 06:20:13;;;;;;;;;2.00;2.00;;;;;20.71;74.06;99702.13;4975037;28;9001;-57
2023/08/15 06:22:41;;;;;;;;;1.00;1.00;;;;;20.77;73.40;99713.00;4974487;28;8848;-58
2023/08/15 06:25:09;;;;;;;;;4.00;2.80;;;;;20.80;73.49;99709.94;4973796;28;8854;-58
2023/08/15 06:27:37;;;;;;;;;1.00;1.00;;;;;20.81;73.62;99715.16;4973627;28;8844;-57
2023/08/15 06:30:04;;;;;;;;;2.00;1.60;;;;;20.83;73.79;99713.09;4973306;28;8824;-56
2023/08/15 06:32:32;;;;;;;;;1.20;1.20;;;;;20.88;73.33;99713.38;4973602;28;8951;-56
2023/08/15 06:35:00;;;;;;;;;0.00;0.00;;;;;20.94;73.23;99715.31;4973101;28;8832;-57
2023/08/15 06:37:28;;;;;;;;;1.00;1.00;;;;;21.01;73.26;99715.38;4973239;28;9101;-58
2023/08/15 06:39:56;;;;;;;;;2.00;1.60;;;;;21.09;73.06;99732.34;4973328;28;8853;-59
2023/08/15 06:42:23;;;;;;;;;1.00;1.00;;;;;21.21;72.87;99725.38;4972719;28;8851;-58
2023/08/15 06:44:51;;;;;;;;;1.00;1.00;;;;;21.32;72.81;99724.84;4974049;28;8844;-57
2023/08/15 06:47:19;;;;;;;;;2.00;1.40;;;;;21.44;72.07;99731.41;4973719;28;8832;-56
2023/08/15 06:49:47;;;;;;;;;2.00;1.00;;;;;21.54;71.98;99733.75;4971509;28;8860;-58
2023/08/15 06:52:15;;;;;;;;;1.00;1.00;;;;;21.64;72.21;99739.69;4972904;28;8836;-59
2023/08/15 06:54:42;;;;;;;;;1.00;1.00;;;;;21.75;71.48;99736.44;4972747;28;8837;-56
2023/08/15 06:57:10;;;;;;;;;2.40;1.20;;;;;21.84;71.67;99735.25;4972794;28;8829;-59
2023/08/15 06:59:38;;;;;;;;;1.40;1.40;;;;;21.90;71.03;99729.03;4974110;28;8836;-56
2023/08/15 07:02:06;;;;;;;;;1.00;1.00;;;;;21.96;71.44;99739.09;4977131;28;8978;-57
2023/08/15 07:04:38;;;;;;;;;1.00;1.00;;;;;22.02;71.35;99744.56;4977464;28;8979;-57
2023/08/15 07:07:06;;;;;;;;;1.20;1.00;;;;;22.10;71.17;99730.81;4977121;28;8891;-59
2023/08/15 07:09:35;;;;;;;;;1.00;1.00;;;;;22.20;70.80;99738.59;4976666;28;8871;-56
2023/08/15 07:12:04;;;;;;;;;1.00;1.00;;;;;22.28;70.54;99735.72;4976941;28;8840;-59
2023/08/15 07:14:32;;;;;;;;;1.00;1.00;;;;;22.37;70.36;99737.22;4977819;28;8959;-59
2023/08/15 07:17:00;;;;;;;;;1.20;1.20;;;;;22.44;70.46;99738.97;4977091;28;8828;-59
2023/08/15 07:19:28;;;;;;;;;1.00;1.00;;;;;22.58;70.10;99745.28;4977202;28;10039;-58
2023/08/15 07:21:56;;;;;;;;;1.00;1.00;;;;;22.72;69.46;99742.44;4977228;28;8837;-57
2023/08/15 07:24:23;;;;;;;;;1.80;1.00;;;;;22.90;69.76;99736.38;4977148;28;8855;-57
2023/08/15 07:26:51;;;;;;;;;2.00;2.00;;;;;23.03;69.13;99733.72;4977652;28;8840;-59
2023/08/15 07:29:19;;;;;;;;;0.00;0.00;;;;;23.10;69.41;99737.28;4977820;28;8840;-57
2023/08/15 07:31:47;;;;;;;;;0.60;0.60;;;;;23.16;69.03;99734.59;4977397;28;8849;-57
2023/08/15 07:34:15;;;;;;;;;2.00;2.00;;;;;23.23;68.46;99735.44;4976998;28;8841;-57
2023/08/15 07:36:42;;;;;;;;;2.00;1.20;;;;;23.29;69.05;99733.78;4976765;28;8852;-57
2023/08/15 07:39:10;;;;;;;;;2.00;1.00;;;;;23.34;68.54;99737.56;4977422;28;8986;-58
2023/08/15 07:41:38;;;;;;;;;2.00;2.00;;;;;23.42;68.96;99740.06;4977025;28;8853;-58
2023/08/15 07:44:06;;;;;;;;;1.00;1.00;;;;;23.51;68.84;99748.84;4976852;28;8836;-57
2023/08/15 07:46:33;;;;;;;;;0.60;0.00;;;;;23.62;68.76;99751.78;4977634;28;8930;-57
2023/08/15 07:49:02;;;;;;;;;1.00;1.00;;;;;23.75;67.84;99762.63;4975785;28;8825;-58
2023/08/15 07:51:31;;;;;;;;;1.00;1.00;;;;;23.85;68.25;99756.78;4975858;28;8833;-58
2023/08/15 07:53:59;;;;;;;;;0.00;0.00;;;;;23.88;67.82;99762.66;4952235;23;8900;-90
2023/08/15 07:56:29;;;;;;;;;1.00;1.00;;;;;23.88;68.06;99769.97;4978238;28;9550;-89
2023/08/15 07:58:56;;;;;;;;;1.20;1.00;;;;;23.84;67.97;99772.28;4978278;28;8935;-89
2023/08/15 08:01:25;;;;;;;;;1.00;1.00;;;;;23.81;67.97;99774.56;4978574;28;8860;-89
2023/08/15 08:03:53;;;;;;;;;0.80;0.80;;;;;23.79;68.83;99784.81;4978037;28;8849;-89
2023/08/15 08:06:21;;;;;;;;;1.80;1.60;;;;;23.76;68.16;99779.81;4978641;28;9553;-89
2023/08/15 08:09:06;;;;;;;;;1.60;1.40;;;;;23.74;68.73;99784.63;4979405;28;8916;-89
2023/08/15 08:11:35;;;;;;;;;1.20;1.20;;;;;23.77;69.13;99782.31;4978553;28;8841;-89
2023/08/15 08:14:04;;;;;;;;;1.00;1.00;;;;;23.89;68.75;99790.72;4978933;28;8840;-89
2023/08/15 08:16:32;;;;;;;;;1.00;1.00;;;;;23.96;68.30;99788.81;4978836;28;8853;-88
2023/08/15 08:19:00;;;;;;;;;3.00;2.00;;;;;24.00;68.05;99803.66;4977882;28;8832;-89
2023/08/15 08:21:28;;;;;;;;;4.00;4.00;;;;;24.03;68.32;99801.34;4978777;28;9549;-90
2023/08/15 08:23:55;;;;;;;;;3.80;3.00;;;;;24.04;67.98;99789.41;4978786;28;8864;-90
2023/08/15 08:26:23;;;;;;;;;2.00;2.00;;;;;24.07;68.50;99797.19;4978307;28;8848;-89
2023/08/15 08:28:51;;;;;;;;;4.80;3.00;;;;;24.16;67.51;99790.47;4977871;28;8867;-89
2023/08/15 08:31:19;;;;;;;;;6.00;5.20;;;;;24.42;67.57;99795.00;4977356;28;8832;-90
2023/08/15 08:33:50;;;;;;;;;2.00;2.00;;;;;24.64;66.89;99793.72;4977262;28;8848;-89
2023/08/15 08:36:18;;;;;;;;;7.20;7.20;;;;;24.77;66.21;99799.06;4976761;28;8848;-88
2023/08/15 08:38:46;;;;;;;;;2.00;1.80;;;;;24.82;66.69;99804.72;4977286;28;8841;-89
2023/08/15 08:41:14;;;;;;;;;7.00;6.60;;;;;24.81;66.80;99797.59;4977394;28;8875;-88
2023/08/15 08:43:42;;;;;;;;;9.40;7.80;;;;;24.83;66.89;99801.78;4977830;28;8858;-88
2023/08/15 08:46:09;;;;;;;;;12.20;10.60;;;;;24.90;66.30;99808.06;4977691;28;8904;-90
2023/08/15 08:48:37;;;;;;;;;11.60;9.00;;;;;25.02;66.26;99805.47;4977152;28;8841;-88
2023/08/15 08:51:05;;;;;;;;;10.00;9.40;;;;;25.16;65.88;99807.06;4976954;28;8955;-89
2023/08/15 08:53:33;;;;;;;;;14.00;12.80;;;;;25.27;65.48;99818.16;4977266;28;8867;-88
2023/08/15 08:56:01;;;;;;;;;13.20;12.60;;;;;25.22;65.86;99809.78;4977110;28;8962;-89
2023/08/15 08:58:28;;;;;;;;;10.00;9.40;;;;;25.10;66.04;99811.50;4976893;28;8868;-89
2023/08/15 09:00:56;;;;;;;;;15.60;14.60;;;;;25.09;66.25;99812.56;4976571;28;8844;-88
2023/08/15 09:03:24;;;;;;;;;10.40;8.20;;;;;25.10;66.26;99827.84;4976810;28;8836;-88
2023/08/15 09:05:52;;;;;;;;;10.80;10.80;;;;;25.13;66.39;99823.84;4976450;28;9523;-88
2023/08/15 09:08:20;;;;;;;;;14.60;11.00;;;;;25.15;66.37;99821.75;4974371;28;8844;-88
2023/08/15 09:10:47;;;;;;;;;11.40;10.80;;;;;25.15;66.28;99827.19;4974789;28;8991;-89
2023/08/15 09:13:15;;;;;;;;;7.60;7.60;;;;;25.16;66.02;99831.59;4974891;28;8836;-88
2023/08/15 09:15:43;;;;;;;;;7.80;7.00;;;;;25.19;66.34;99823.00;4975493;28;8867;-88
2023/08/15 09:18:11;;;;;;;;;11.40;10.80;;;;;25.26;66.40;99830.09;4975110;28;9480;-89
2023/08/15 09:20:39;;;;;;;;;14.00;13.60;;;;;25.30;66.25;99839.53;4976331;28;8848;-90
2023/08/15 09:23:07;;;;;;;;;11.40;11.00;;;;;25.23;66.60;99846.06;4975926;28;8852;-88
2023/08/15 09:25:36;;;;;;;;;12.00;11.80;;;;;25.20;66.41;99835.56;4977351;28;9006;-89
2023/08/15 09:28:04;;;;;;;;;10.80;10.40;;;;;25.17;66.47;99836.84;4976124;28;8955;-88
2023/08/15 09:30:32;;;;;;;;;12.20;11.20;;;;;25.23;66.47;99832.41;4976171;28;8922;-89
2023/08/15 09:33:00;;;;;;;;;10.80;10.80;;;;;25.38;66.28;99830.22;4976459;28;8923;-88
2023/08/15 09:35:28;;;;;;;;;12.00;11.40;;;;;25.57;65.20;99832.84;4975584;28;8848;-88
2023/08/15 09:37:55;;;;;;;;;11.00;10.60;;;;;25.68;65.39;99834.88;4976769;28;8905;-89
2023/08/15 09:40:27;;;;;;;;;13.60;12.60;;;;;25.67;65.60;99844.09;4976298;28;8840;-89
2023/08/15 09:42:54;;;;;;;;;18.60;15.00;;;;;25.50;66.00;99848.44;4976061;28;8906;-88
2023/08/15 09:45:22;;;;;;;;;8.80;8.80;;;;;25.38;66.32;99844.72;4976307;28;8944;-88
2023/08/15 09:47:50;;;;;;;;;12.00;11.80;;;;;25.28;66.32;99846.25;4976187;28;8844;-88
2023/08/15 09:50:18;;;;;;;;;9.20;9.00;;;;;25.13;66.77;99851.13;4977005;28;8840;-88
2023/08/15 09:52:46;;;;;;;;;15.00;11.40;;;;;24.97;67.02;99851.63;4976853;28;8867;-88
2023/08/15 09:55:19;;;;;;;;;9.00;8.60;;;;;24.83;67.37;99860.91;4976575;28;8966;-88
2023/08/15 09:57:47;;;;;;;;;13.00;11.60;;;;;24.77;67.69;99857.16;4976001;28;8856;-89
2023/08/15 10:00:16;;;;;;;;;13.60;13.20;;;;;24.77;68.12;99864.47;4975760;28;8919;-88
2023/08/15 10:02:45;;;;;;;;;6.40;5.00;;;;;24.80;67.76;99856.72;4975042;28;8848;-88
2023/08/15 10:05:13;;;;;;;;;15.80;14.80;;;;;24.84;67.60;99862.56;4975541;28;8844;-87
2023/08/15 10:07:41;;;;;;;;;15.20;12.20;;;;;24.80;67.45;99872.22;4975073;28;8967;-88
2023/08/15 10:10:09;;;;;;;;;10.00;9.60;;;;;24.69;67.82;99876.47;4975666;28;8849;-88
2023/08/15 10:12:37;;;;;;;;;12.00;11.40;;;;;24.58;68.06;99873.56;4975958;28;8840;-88
2023/08/15 10:15:05;;;;;;;;;10.20;10.20;;;;;24.55;67.97;99879.38;4976579;28;8848;-88
2023/08/15 10:17:33;;;;;;;;;13.80;12.20;;;;;24.59;68.31;99883.41;4976871;28;8938;-88
2023/08/15 10:20:01;;;;;;;;;13.00;11.20;;;;;24.60;67.73;99883.19;4975137;28;8860;-88
2023/08/15 10:22:33;;;;;;;;;12.00;9.80;;;;;24.61;67.84;99881.28;4975920;28;8857;-88
2023/08/15 10:25:01;;;;;;;;;11.00;10.00;;;;;24.59;68.23;99884.22;4974835;28;8888;-88
2023/08/15 10:27:30;;;;;;;;;13.80;12.60;;;;;24.55;68.48;99885.69;4974699;28;9026;-88
2023/08/15 10:29:58;;;;;;;;;9.20;9.00;;;;;24.64;67.92;99880.88;4974763;28;8939;-88
2023/08/15 10:32:26;;;;;;;;;12.80;10.00;;;;;24.75;67.50;99880.22;4975452;28;8860;-89
2023/08/15 10:34:54;;;;;;;;;11.40;10.20;;;;;24.78;67.40;99882.50;4975831;28;8852;-88
2023/08/15 10:37:22;;;;;;;;;12.60;11.80;;;;;24.85;67.44;99872.41;4977798;28;8847;-88
2023/08/15 10:39:50;;;;;;;;;3.00;2.00;;;;;25.01;66.86;99880.09;4978004;28;8852;-88
2023/08/15 10:42:18;;;;;;;;;12.00;11.00;;;;;25.44;65.79;99871.13;4977795;28;8938;-88
2023/08/15 10:44:46;;;;;;;;;8.80;8.40;;;;;25.68;65.11;99873.91;4978033;28;8856;-88
2023/08/15 10:47:14;;;;;;;;;13.00;12.20;;;;;25.75;64.77;99882.03;4977313;28;8837;-87
2023/08/15 10:49:41;;;;;;;;;9.20;8.60;;;;;25.89;65.04;99878.19;4977750;28;8860;-87
2023/08/15 10:52:10;;;;;;;;;11.00;10.00;;;;;26.34;64.10;99888.72;4977035;28;8837;-87
2023/08/15 10:54:38;;;;;;;;;15.60;12.80;;;;;26.69;63.47;99883.56;4977836;28;8853;-87
2023/08/15 10:57:05;;;;;;;;;10.60;10.00;;;;;26.98;61.68;99889.13;4976888;28;8852;-88
2023/08/15 10:59:33;;;;;;;;;9.80;8.00;;;;;27.18;61.83;99894.38;4976594;28;8855;-86
2023/08/15 11:02:01;;;;;;;;;6.40;6.40;;;;;27.39;61.34;99886.50;4976707;28;8852;-87
2023/08/15 11:04:29;;;;;;;;;12.80;11.80;;;;;27.67;61.21;99889.47;4976743;28;8857;-86
2023/08/15 11:06:58;;;;;;;;;9.00;7.20;;;;;27.71;61.00;99885.19;4976467;28;8848;-87
2023/08/15 11:09:26;;;;;;;;;11.00;9.00;;;;;27.62;61.22;99897.53;4977091;28;8954;-87
2023/08/15 11:11:53;;;;;;;;;7.00;7.00;;;;;27.47;62.06;99894.38;4977425;28;9644;-87
2023/08/15 11:14:21;;;;;;;;;9.00;8.00;;;;;27.54;61.44;99895.13;4977317;28;9026;-87
2023/08/15 11:16:50;;;;;;;;;9.00;8.00;;;;;27.54;61.54;99891.56;4977709;28;8856;-88
2023/08/15 11:19:17;;;;;;;;;7.40;6.80;;;;;27.50;61.75;99898.56;4976294;28;8876;-87
2023/08/15 11:21:46;;;;;;;;;7.20;7.20;;;;;27.54;61.79;99910.75;4976802;28;8844;-87
2023/08/15 11:24:13;;;;;;;;;7.20;7.20;;;;;27.68;61.46;99902.09;4976616;28;9010;-88
2023/08/15 11:26:41;;;;;;;;;7.20;6.40;;;;;27.84;60.51;99903.38;4977135;28;8930;-87
2023/08/15 11:29:10;;;;;;;;;7.00;6.00;;;;;28.00;60.63;99905.44;4976477;28;8848;-87
2023/08/15 11:31:38;;;;;;;;;8.40;7.80;;;;;28.10;60.52;99906.53;4977005;28;8848;-88
2023/08/15 11:34:06;;;;;;;;;7.40;7.00;;;;;28.05;60.59;99909.13;4977306;28;8926;-89
2023/08/15 11:36:34;;;;;;;;;7.20;6.40;;;;;28.04;60.29;99903.88;4977375;28;8848;-87
2023/08/15 11:39:03;;;;;;;;;6.00;4.60;;;;;28.17;59.89;99904.53;4976787;28;8934;-87